sensor_id;sensor_type;location;lat;lon;timestamp;temperature;humidity
49222;DHT22;35047;37.588;-122.048;2023-03-01T00:00:03;17.10;72.70
49222;DHT22;35047;37.588;-122.048;2023-03-01T00:02:31;16.80;70.60
49222;DHT22;35047;37.588;-122.048;2023-03-01T00:04:57;17.00;73.90
49222;DHT22;35047;37.588;-122.048;2023-03-01T00:07:24;17.00;71.70
49222;DHT22;35047;37.588;-122.048;2023-03-01T00:09:50;16.60;71.40
49222;DHT22;35047;37.588;-122.048;2023-03-01T00:12:17;16.40;72.00
49222;DHT22;35047;37.588;-122.048;2023-03-01T00:14:44;16.40;72.60
49222;DHT22;35047;37.588;-122.048;2023-03-01T00:17:10;16.20;73.30
49222;DHT22;35047;37.588;-122.048;2023-03-01T00:19:36;16.00;73.10
49222;DHT22;35047;37.588;-122.048;2023-03-01T00:22:03;15.80;75.30
49222;DHT22;35047;37.588;-122.048;2023-03-01T00:24:29;15.80;76.00
49222;DHT22;35047;37.588;-122.048;2023-03-01T00:26:56;15.70;76.90
49222;DHT22;35047;37.588;-122.048;2023-03-01T00:29:24;15.80;77.30
49222;DHT22;35047;37.588;-122.048;2023-03-01T00:31:51;15.60;77.40
49222;DHT22;35047;37.588;-122.048;2023-03-01T00:34:17;15.60;78.70
49222;DHT22;35047;37.588;-122.048;2023-03-01T00:36:44;15.60;80.20
49222;DHT22;35047;37.588;-122.048;2023-03-01T00:39:13;15.50;82.20
49222;DHT22;35047;37.588;-122.048;2023-03-01T00:41:41;15.50;83.20
49222;DHT22;35047;37.588;-122.048;2023-03-01T00:44:07;15.50;84.50
49222;DHT22;35047;37.588;-122.048;2023-03-01T00:46:34;15.30;84.70
49222;DHT22;35047;37.588;-122.048;2023-03-01T00:49:00;15.10;85.40
49222;DHT22;35047;37.588;-122.048;2023-03-01T00:51:30;15.00;86.80
49222;DHT22;35047;37.588;-122.048;2023-03-01T00:54:00;15.00;85.60
49222;DHT22;35047;37.588;-122.048;2023-03-01T00:56:28;14.90;87.20
49222;DHT22;35047;37.588;-122.048;2023-03-01T00:58:55;15.00;88.60
49222;DHT22;35047;37.588;-122.048;2023-03-01T01:01:26;15.20;86.80
49222;DHT22;35047;37.588;-122.048;2023-03-01T01:04:07;15.20;88.00
49222;DHT22;35047;37.588;-122.048;2023-03-01T01:06:36;15.70;88.40
49222;DHT22;35047;37.588;-122.048;2023-03-01T01:09:06;15.60;87.00
49222;DHT22;35047;37.588;-122.048;2023-03-01T01:11:33;15.70;87.50
49222;DHT22;35047;37.588;-122.048;2023-03-01T01:14:02;15.60;86.30
49222;DHT22;35047;37.588;-122.048;2023-03-01T01:16:29;15.60;85.00
49222;DHT22;35047;37.588;-122.048;2023-03-01T01:18:57;15.80;86.50
49222;DHT22;35047;37.588;-122.048;2023-03-01T01:21:24;15.60;84.80
49222;DHT22;35047;37.588;-122.048;2023-03-01T01:23:51;15.70;84.70
49222;DHT22;35047;37.588;-122.048;2023-03-01T01:26:22;15.60;85.60
49222;DHT22;35047;37.588;-122.048;2023-03-01T01:28:49;15.90;86.10
49222;DHT22;35047;37.588;-122.048;2023-03-01T01:31:17;15.80;84.10
49222;DHT22;35047;37.588;-122.048;2023-03-01T01:33:44;15.80;82.70
49222;DHT22;35047;37.588;-122.048;2023-03-01T01:36:11;15.70;85.60
49222;DHT22;35047;37.588;-122.048;2023-03-01T01:38:38;15.80;86.10
49222;DHT22;35047;37.588;-122.048;2023-03-01T01:41:06;15.70;82.30
49222;DHT22;35047;37.588;-122.048;2023-03-01T01:43:47;15.80;85.00
49222;DHT22;35047;37.588;-122.048;2023-03-01T01:46:21;15.90;84.80
49222;DHT22;35047;37.588;-122.048;2023-03-01T01:48:57;15.90;84.70
49222;DHT22;35047;37.588;-122.048;2023-03-01T01:51:32;15.90;84.80
49222;DHT22;35047;37.588;-122.048;2023-03-01T01:54:14;15.90;85.30
49222;DHT22;35047;37.588;-122.048;2023-03-01T01:56:46;15.70;85.40
49222;DHT22;35047;37.588;-122.048;2023-03-01T01:59:14;15.70;85.60
49222;DHT22;35047;37.588;-122.048;2023-03-01T02:01:41;15.60;87.10
49222;DHT22;35047;37.588;-122.048;2023-03-01T02:04:08;15.60;87.20
49222;DHT22;35047;37.588;-122.048;2023-03-01T02:06:42;15.70;86.90
49222;DHT22;35047;37.588;-122.048;2023-03-01T02:09:14;15.70;87.20
49222;DHT22;35047;37.588;-122.048;2023-03-01T02:11:42;15.60;87.30
49222;DHT22;35047;37.588;-122.048;2023-03-01T02:14:09;15.60;87.20
49222;DHT22;35047;37.588;-122.048;2023-03-01T02:16:36;15.60;87.30
49222;DHT22;35047;37.588;-122.048;2023-03-01T02:19:03;15.60;87.60
49222;DHT22;35047;37.588;-122.048;2023-03-01T02:24:21;15.50;87.80
49222;DHT22;35047;37.588;-122.048;2023-03-01T02:26:53;15.50;87.40
49222;DHT22;35047;37.588;-122.048;2023-03-01T02:29:25;15.50;87.70
49222;DHT22;35047;37.588;-122.048;2023-03-01T02:31:55;15.40;87.90
49222;DHT22;35047;37.588;-122.048;2023-03-01T02:34:24;15.50;88.20
49222;DHT22;35047;37.588;-122.048;2023-03-01T02:37:03;15.50;87.80
49222;DHT22;35047;37.588;-122.048;2023-03-01T02:39:39;15.50;87.70
49222;DHT22;35047;37.588;-122.048;2023-03-01T02:42:11;15.50;87.50
49222;DHT22;35047;37.588;-122.048;2023-03-01T02:44:39;15.50;86.90
49222;DHT22;35047;37.588;-122.048;2023-03-01T02:47:05;15.50;87.30
49222;DHT22;35047;37.588;-122.048;2023-03-01T02:49:35;15.50;87.20
49222;DHT22;35047;37.588;-122.048;2023-03-01T02:52:27;15.50;86.90
49222;DHT22;35047;37.588;-122.048;2023-03-01T02:54:58;15.40;86.50
49222;DHT22;35047;37.588;-122.048;2023-03-01T02:57:28;15.40;87.10
49222;DHT22;35047;37.588;-122.048;2023-03-01T02:59:57;15.30;87.40
49222;DHT22;35047;37.588;-122.048;2023-03-01T03:02:26;15.30;87.40
49222;DHT22;35047;37.588;-122.048;2023-03-01T03:05:06;15.20;87.10
49222;DHT22;35047;37.588;-122.048;2023-03-01T03:07:38;15.10;86.00
49222;DHT22;35047;37.588;-122.048;2023-03-01T03:10:09;15.10;87.00
49222;DHT22;35047;37.588;-122.048;2023-03-01T03:12:38;15.10;86.50
49222;DHT22;35047;37.588;-122.048;2023-03-01T03:15:06;15.00;86.60
49222;DHT22;35047;37.588;-122.048;2023-03-01T03:17:38;15.00;86.40
49222;DHT22;35047;37.588;-122.048;2023-03-01T03:20:06;14.90;86.40
49222;DHT22;35047;37.588;-122.048;2023-03-01T03:22:40;14.90;86.80
49222;DHT22;35047;37.588;-122.048;2023-03-01T03:25:07;14.90;86.30
49222;DHT22;35047;37.588;-122.048;2023-03-01T03:27:38;14.80;87.00
49222;DHT22;35047;37.588;-122.048;2023-03-01T03:30:07;14.80;86.90
49222;DHT22;35047;37.588;-122.048;2023-03-01T03:32:42;14.80;87.10
49222;DHT22;35047;37.588;-122.048;2023-03-01T03:35:23;14.80;86.60
49222;DHT22;35047;37.588;-122.048;2023-03-01T03:37:51;14.70;87.40
49222;DHT22;35047;37.588;-122.048;2023-03-01T03:40:38;14.60;87.30
49222;DHT22;35047;37.588;-122.048;2023-03-01T03:43:08;14.60;87.50
49222;DHT22;35047;37.588;-122.048;2023-03-01T03:45:35;14.50;87.50
49222;DHT22;35047;37.588;-122.048;2023-03-01T03:48:03;14.40;87.40
49222;DHT22;35047;37.588;-122.048;2023-03-01T03:50:30;14.30;87.80
49222;DHT22;35047;37.588;-122.048;2023-03-01T03:52:57;14.20;87.70
49222;DHT22;35047;37.588;-122.048;2023-03-01T03:55:24;14.20;87.20
49222;DHT22;35047;37.588;-122.048;2023-03-01T03:57:57;14.10;85.90
49222;DHT22;35047;37.588;-122.048;2023-03-01T04:00:28;14.10;86.20
49222;DHT22;35047;37.588;-122.048;2023-03-01T04:02:55;14.00;86.10
49222;DHT22;35047;37.588;-122.048;2023-03-01T04:05:22;14.00;87.00
49222;DHT22;35047;37.588;-122.048;2023-03-01T04:07:49;14.00;87.50
49222;DHT22;35047;37.588;-122.048;2023-03-01T04:10:31;14.10;87.60
49222;DHT22;35047;37.588;-122.048;2023-03-01T04:12:58;14.10;87.50
49222;DHT22;35047;37.588;-122.048;2023-03-01T04:15:26;14.10;87.90
49222;DHT22;35047;37.588;-122.048;2023-03-01T04:17:54;14.20;87.90
49222;DHT22;35047;37.588;-122.048;2023-03-01T04:20:23;14.20;87.30
49222;DHT22;35047;37.588;-122.048;2023-03-01T04:25:51;14.30;86.80
49222;DHT22;35047;37.588;-122.048;2023-03-01T04:30:52;14.30;86.30
49222;DHT22;35047;37.588;-122.048;2023-03-01T04:33:20;14.30;85.90
49222;DHT22;35047;37.588;-122.048;2023-03-01T04:35:48;14.30;84.30
49222;DHT22;35047;37.588;-122.048;2023-03-01T04:38:18;14.10;84.80
49222;DHT22;35047;37.588;-122.048;2023-03-01T04:40:45;14.00;84.80
49222;DHT22;35047;37.588;-122.048;2023-03-01T04:43:12;14.00;84.90
49222;DHT22;35047;37.588;-122.048;2023-03-01T04:45:43;13.90;85.70
49222;DHT22;35047;37.588;-122.048;2023-03-01T04:48:10;13.90;86.00
49222;DHT22;35047;37.588;-122.048;2023-03-01T04:50:36;13.80;86.60
49222;DHT22;35047;37.588;-122.048;2023-03-01T04:53:03;13.80;85.90
49222;DHT22;35047;37.588;-122.048;2023-03-01T04:55:30;13.80;86.30
49222;DHT22;35047;37.588;-122.048;2023-03-01T04:57:57;13.80;85.90
49222;DHT22;35047;37.588;-122.048;2023-03-01T05:00:23;13.80;85.50
49222;DHT22;35047;37.588;-122.048;2023-03-01T05:02:53;13.80;85.70
49222;DHT22;35047;37.588;-122.048;2023-03-01T05:05:25;13.80;85.60
49222;DHT22;35047;37.588;-122.048;2023-03-01T05:07:56;13.80;85.80
49222;DHT22;35047;37.588;-122.048;2023-03-01T05:10:24;13.70;85.80
49222;DHT22;35047;37.588;-122.048;2023-03-01T05:12:51;13.80;86.10
49222;DHT22;35047;37.588;-122.048;2023-03-01T05:15:19;13.80;86.50
49222;DHT22;35047;37.588;-122.048;2023-03-01T05:17:48;13.80;85.50
49222;DHT22;35047;37.588;-122.048;2023-03-01T05:20:15;13.80;85.70
49222;DHT22;35047;37.588;-122.048;2023-03-01T05:22:41;13.70;85.90
49222;DHT22;35047;37.588;-122.048;2023-03-01T05:25:08;13.70;85.70
49222;DHT22;35047;37.588;-122.048;2023-03-01T05:27:35;13.70;85.90
49222;DHT22;35047;37.588;-122.048;2023-03-01T05:30:03;13.70;86.10
49222;DHT22;35047;37.588;-122.048;2023-03-01T05:32:41;13.70;86.20
49222;DHT22;35047;37.588;-122.048;2023-03-01T05:35:09;13.70;85.90
49222;DHT22;35047;37.588;-122.048;2023-03-01T05:37:46;13.80;85.90
49222;DHT22;35047;37.588;-122.048;2023-03-01T05:40:16;13.90;85.30
49222;DHT22;35047;37.588;-122.048;2023-03-01T05:42:49;13.90;85.00
49222;DHT22;35047;37.588;-122.048;2023-03-01T05:45:17;14.00;85.20
49222;DHT22;35047;37.588;-122.048;2023-03-01T05:47:45;13.90;84.90
49222;DHT22;35047;37.588;-122.048;2023-03-01T05:50:16;13.90;85.00
49222;DHT22;35047;37.588;-122.048;2023-03-01T05:52:50;13.90;85.10
49222;DHT22;35047;37.588;-122.048;2023-03-01T05:55:18;14.00;85.40
49222;DHT22;35047;37.588;-122.048;2023-03-01T05:57:45;14.00;84.70
49222;DHT22;35047;37.588;-122.048;2023-03-01T06:02:41;14.00;84.50
49222;DHT22;35047;37.588;-122.048;2023-03-01T06:05:09;14.00;84.40
49222;DHT22;35047;37.588;-122.048;2023-03-01T06:07:36;14.00;84.40
49222;DHT22;35047;37.588;-122.048;2023-03-01T06:10:04;13.90;84.50
49222;DHT22;35047;37.588;-122.048;2023-03-01T06:12:31;13.90;84.60
49222;DHT22;35047;37.588;-122.048;2023-03-01T06:14:59;13.90;84.80
49222;DHT22;35047;37.588;-122.048;2023-03-01T06:17:26;13.90;84.90
49222;DHT22;35047;37.588;-122.048;2023-03-01T06:19:52;13.90;85.60
49222;DHT22;35047;37.588;-122.048;2023-03-01T06:22:19;13.90;85.00
49222;DHT22;35047;37.588;-122.048;2023-03-01T06:24:45;13.90;84.60
49222;DHT22;35047;37.588;-122.048;2023-03-01T06:27:12;13.90;84.60
49222;DHT22;35047;37.588;-122.048;2023-03-01T06:29:38;13.80;85.20
49222;DHT22;35047;37.588;-122.048;2023-03-01T06:32:05;13.80;85.70
49222;DHT22;35047;37.588;-122.048;2023-03-01T06:34:32;13.80;85.60
49222;DHT22;35047;37.588;-122.048;2023-03-01T06:36:58;13.80;85.30
49222;DHT22;35047;37.588;-122.048;2023-03-01T06:39:27;13.80;85.10
49222;DHT22;35047;37.588;-122.048;2023-03-01T06:41:53;13.80;85.20
49222;DHT22;35047;37.588;-122.048;2023-03-01T06:44:20;13.80;85.70
49222;DHT22;35047;37.588;-122.048;2023-03-01T06:46:46;13.80;85.90
49222;DHT22;35047;37.588;-122.048;2023-03-01T06:49:13;13.80;86.50
49222;DHT22;35047;37.588;-122.048;2023-03-01T06:51:39;13.80;85.70
49222;DHT22;35047;37.588;-122.048;2023-03-01T06:54:06;13.80;85.70
49222;DHT22;35047;37.588;-122.048;2023-03-01T06:56:33;13.80;85.90
49222;DHT22;35047;37.588;-122.048;2023-03-01T06:58:59;13.80;86.10
49222;DHT22;35047;37.588;-122.048;2023-03-01T07:01:26;13.70;86.10
49222;DHT22;35047;37.588;-122.048;2023-03-01T07:03:52;13.70;86.00
49222;DHT22;35047;37.588;-122.048;2023-03-01T07:06:19;13.70;87.40
49222;DHT22;35047;37.588;-122.048;2023-03-01T07:08:45;13.40;84.40
49222;DHT22;35047;37.588;-122.048;2023-03-01T07:11:12;13.40;86.50
49222;DHT22;35047;37.588;-122.048;2023-03-01T07:13:39;13.50;85.70
49222;DHT22;35047;37.588;-122.048;2023-03-01T07:16:06;13.50;85.80
49222;DHT22;35047;37.588;-122.048;2023-03-01T07:18:32;13.50;85.20
49222;DHT22;35047;37.588;-122.048;2023-03-01T07:21:04;13.40;85.10
49222;DHT22;35047;37.588;-122.048;2023-03-01T07:23:31;13.40;85.30
49222;DHT22;35047;37.588;-122.048;2023-03-01T07:25:59;13.40;85.30
49222;DHT22;35047;37.588;-122.048;2023-03-01T07:28:25;13.30;85.20
49222;DHT22;35047;37.588;-122.048;2023-03-01T07:30:52;13.30;85.20
49222;DHT22;35047;37.588;-122.048;2023-03-01T07:33:19;13.30;85.40
49222;DHT22;35047;37.588;-122.048;2023-03-01T07:35:46;13.30;85.60
49222;DHT22;35047;37.588;-122.048;2023-03-01T07:38:12;13.30;85.30
49222;DHT22;35047;37.588;-122.048;2023-03-01T07:40:39;13.30;85.70
49222;DHT22;35047;37.588;-122.048;2023-03-01T07:43:05;13.30;86.60
49222;DHT22;35047;37.588;-122.048;2023-03-01T07:45:32;13.30;86.00
49222;DHT22;35047;37.588;-122.048;2023-03-01T07:47:58;13.30;86.00
49222;DHT22;35047;37.588;-122.048;2023-03-01T07:50:25;13.30;86.00
49222;DHT22;35047;37.588;-122.048;2023-03-01T07:52:51;13.30;85.90
49222;DHT22;35047;37.588;-122.048;2023-03-01T07:55:17;13.30;85.80
49222;DHT22;35047;37.588;-122.048;2023-03-01T07:57:45;13.30;86.10
49222;DHT22;35047;37.588;-122.048;2023-03-01T08:00:12;13.30;86.30
49222;DHT22;35047;37.588;-122.048;2023-03-01T08:02:39;13.20;86.30
49222;DHT22;35047;37.588;-122.048;2023-03-01T08:05:08;13.20;86.10
49222;DHT22;35047;37.588;-122.048;2023-03-01T08:07:36;13.10;85.10
49222;DHT22;35047;37.588;-122.048;2023-03-01T08:10:02;13.10;84.30
49222;DHT22;35047;37.588;-122.048;2023-03-01T08:12:29;13.00;83.60
49222;DHT22;35047;37.588;-122.048;2023-03-01T08:14:56;12.90;83.40
49222;DHT22;35047;37.588;-122.048;2023-03-01T08:17:23;12.90;83.10
49222;DHT22;35047;37.588;-122.048;2023-03-01T08:19:49;12.70;83.00
49222;DHT22;35047;37.588;-122.048;2023-03-01T08:22:16;12.70;81.90
49222;DHT22;35047;37.588;-122.048;2023-03-01T08:24:43;12.60;82.70
49222;DHT22;35047;37.588;-122.048;2023-03-01T08:27:10;12.60;81.80
49222;DHT22;35047;37.588;-122.048;2023-03-01T08:29:37;12.60;81.70
49222;DHT22;35047;37.588;-122.048;2023-03-01T08:32:04;12.60;81.20
49222;DHT22;35047;37.588;-122.048;2023-03-01T08:34:31;12.50;82.10
49222;DHT22;35047;37.588;-122.048;2023-03-01T08:36:57;12.50;81.70
49222;DHT22;35047;37.588;-122.048;2023-03-01T08:39:24;12.50;81.30
49222;DHT22;35047;37.588;-122.048;2023-03-01T08:41:50;12.50;80.70
49222;DHT22;35047;37.588;-122.048;2023-03-01T08:44:16;12.40;79.60
49222;DHT22;35047;37.588;-122.048;2023-03-01T08:46:44;12.30;79.50
49222;DHT22;35047;37.588;-122.048;2023-03-01T08:49:16;12.20;79.80
49222;DHT22;35047;37.588;-122.048;2023-03-01T08:51:44;12.20;79.80
49222;DHT22;35047;37.588;-122.048;2023-03-01T08:54:16;12.10;79.40
49222;DHT22;35047;37.588;-122.048;2023-03-01T08:56:44;12.10;79.70
49222;DHT22;35047;37.588;-122.048;2023-03-01T08:59:11;12.00;79.70
49222;DHT22;35047;37.588;-122.048;2023-03-01T09:01:38;12.00;79.10
49222;DHT22;35047;37.588;-122.048;2023-03-01T09:04:05;11.90;79.60
49222;DHT22;35047;37.588;-122.048;2023-03-01T09:06:33;11.80;79.50
49222;DHT22;35047;37.588;-122.048;2023-03-01T09:09:00;11.80;79.50
49222;DHT22;35047;37.588;-122.048;2023-03-01T09:11:28;11.80;80.00
49222;DHT22;35047;37.588;-122.048;2023-03-01T09:13:55;11.70;79.00
49222;DHT22;35047;37.588;-122.048;2023-03-01T09:16:23;11.60;79.40
49222;DHT22;35047;37.588;-122.048;2023-03-01T09:18:51;11.60;78.90
49222;DHT22;35047;37.588;-122.048;2023-03-01T09:21:19;11.50;79.30
49222;DHT22;35047;37.588;-122.048;2023-03-01T09:23:47;11.50;79.10
49222;DHT22;35047;37.588;-122.048;2023-03-01T09:26:20;11.40;79.20
49222;DHT22;35047;37.588;-122.048;2023-03-01T09:28:51;11.30;79.20
49222;DHT22;35047;37.588;-122.048;2023-03-01T09:31:20;11.30;80.10
49222;DHT22;35047;37.588;-122.048;2023-03-01T09:33:48;11.30;80.00
49222;DHT22;35047;37.588;-122.048;2023-03-01T09:36:21;11.30;80.80
49222;DHT22;35047;37.588;-122.048;2023-03-01T09:38:48;11.30;79.60
49222;DHT22;35047;37.588;-122.048;2023-03-01T09:43:51;11.30;78.70
49222;DHT22;35047;37.588;-122.048;2023-03-01T09:46:23;11.30;78.30
49222;DHT22;35047;37.588;-122.048;2023-03-01T09:49:15;11.20;78.90
49222;DHT22;35047;37.588;-122.048;2023-03-01T09:51:48;11.20;78.50
49222;DHT22;35047;37.588;-122.048;2023-03-01T09:54:19;11.20;77.70
49222;DHT22;35047;37.588;-122.048;2023-03-01T10:02:38;11.20;79.80
49222;DHT22;35047;37.588;-122.048;2023-03-01T10:08:21;11.20;79.50
49222;DHT22;35047;37.588;-122.048;2023-03-01T10:10:52;11.20;79.60
49222;DHT22;35047;37.588;-122.048;2023-03-01T10:19:00;11.20;79.20
49222;DHT22;35047;37.588;-122.048;2023-03-01T10:21:28;11.20;79.60
49222;DHT22;35047;37.588;-122.048;2023-03-01T10:24:12;11.20;80.30
49222;DHT22;35047;37.588;-122.048;2023-03-01T10:29:16;11.30;81.60
49222;DHT22;35047;37.588;-122.048;2023-03-01T10:31:50;11.30;81.70
49222;DHT22;35047;37.588;-122.048;2023-03-01T10:36:50;11.40;81.50
49222;DHT22;35047;37.588;-122.048;2023-03-01T10:39:23;11.50;81.90
49222;DHT22;35047;37.588;-122.048;2023-03-01T10:42:04;11.50;81.60
49222;DHT22;35047;37.588;-122.048;2023-03-01T10:44:46;11.50;81.10
49222;DHT22;35047;37.588;-122.048;2023-03-01T10:47:24;11.50;81.10
49222;DHT22;35047;37.588;-122.048;2023-03-01T10:50:03;11.60;81.00
49222;DHT22;35047;37.588;-122.048;2023-03-01T10:52:33;11.50;80.80
49222;DHT22;35047;37.588;-122.048;2023-03-01T10:55:39;11.50;79.90
49222;DHT22;35047;37.588;-122.048;2023-03-01T10:58:16;11.50;80.40
49222;DHT22;35047;37.588;-122.048;2023-03-01T11:00:54;11.50;80.60
49222;DHT22;35047;37.588;-122.048;2023-03-01T11:03:30;11.50;80.60
49222;DHT22;35047;37.588;-122.048;2023-03-01T11:11:22;11.50;81.00
49222;DHT22;35047;37.588;-122.048;2023-03-01T11:14:01;11.50;81.60
49222;DHT22;35047;37.588;-122.048;2023-03-01T11:16:35;11.50;81.50
49222;DHT22;35047;37.588;-122.048;2023-03-01T11:24:55;11.50;82.30
49222;DHT22;35047;37.588;-122.048;2023-03-01T11:27:33;11.50;82.60
49222;DHT22;35047;37.588;-122.048;2023-03-01T11:30:05;11.50;81.20
49222;DHT22;35047;37.588;-122.048;2023-03-01T11:35:45;11.50;81.00
49222;DHT22;35047;37.588;-122.048;2023-03-01T11:40:52;11.50;80.30
49222;DHT22;35047;37.588;-122.048;2023-03-01T11:49:35;11.40;79.30
49222;DHT22;35047;37.588;-122.048;2023-03-01T12:00:17;11.20;79.00
49222;DHT22;35047;37.588;-122.048;2023-03-01T12:08:36;11.10;79.00
49222;DHT22;35047;37.588;-122.048;2023-03-01T12:11:29;11.10;79.20
49222;DHT22;35047;37.588;-122.048;2023-03-01T12:17:09;11.10;78.80
49222;DHT22;35047;37.588;-122.048;2023-03-01T12:20:11;11.00;79.20
49222;DHT22;35047;37.588;-122.048;2023-03-01T12:23:11;11.00;79.00
49222;DHT22;35047;37.588;-122.048;2023-03-01T12:34:24;10.90;79.70
49222;DHT22;35047;37.588;-122.048;2023-03-01T12:42:04;10.90;79.90
49222;DHT22;35047;37.588;-122.048;2023-03-01T12:50:18;10.80;80.30
49222;DHT22;35047;37.588;-122.048;2023-03-01T12:52:55;10.70;80.30
49222;DHT22;35047;37.588;-122.048;2023-03-01T12:55:36;10.60;80.80
49222;DHT22;35047;37.588;-122.048;2023-03-01T13:01:03;10.60;80.80
49222;DHT22;35047;37.588;-122.048;2023-03-01T13:09:51;10.60;80.40
49222;DHT22;35047;37.588;-122.048;2023-03-01T13:15:28;10.60;80.20
49222;DHT22;35047;37.588;-122.048;2023-03-01T13:20:45;10.50;80.10
49222;DHT22;35047;37.588;-122.048;2023-03-01T13:28:38;10.40;79.90
49222;DHT22;35047;37.588;-122.048;2023-03-01T13:33:57;10.30;79.80
49222;DHT22;35047;37.588;-122.048;2023-03-01T13:39:04;10.20;80.40
49222;DHT22;35047;37.588;-122.048;2023-03-01T13:44:33;10.20;80.30
49222;DHT22;35047;37.588;-122.048;2023-03-01T13:47:16;10.10;80.60
49222;DHT22;35047;37.588;-122.048;2023-03-01T13:52:42;10.10;80.50
49222;DHT22;35047;37.588;-122.048;2023-03-01T13:55:26;10.00;80.60
49222;DHT22;35047;37.588;-122.048;2023-03-01T13:58:00;10.00;80.50
49222;DHT22;35047;37.588;-122.048;2023-03-01T14:00:32;10.00;80.60
49222;DHT22;35047;37.588;-122.048;2023-03-01T14:03:05;9.90;80.50
49222;DHT22;35047;37.588;-122.048;2023-03-01T14:05:33;9.90;80.40
49222;DHT22;35047;37.588;-122.048;2023-03-01T14:08:03;9.90;80.30
49222;DHT22;35047;37.588;-122.048;2023-03-01T14:11:04;9.80;80.20
49222;DHT22;35047;37.588;-122.048;2023-03-01T14:19:29;9.80;80.50
49222;DHT22;35047;37.588;-122.048;2023-03-01T14:22:30;9.70;80.40
49222;DHT22;35047;37.588;-122.048;2023-03-01T14:25:05;9.70;80.60
49222;DHT22;35047;37.588;-122.048;2023-03-01T14:27:42;9.60;81.10
49222;DHT22;35047;37.588;-122.048;2023-03-01T14:30:45;9.60;81.20
49222;DHT22;35047;37.588;-122.048;2023-03-01T14:33:17;9.60;81.30
49222;DHT22;35047;37.588;-122.048;2023-03-01T14:35:54;9.60;80.90
49222;DHT22;35047;37.588;-122.048;2023-03-01T14:38:29;9.60;81.00
49222;DHT22;35047;37.588;-122.048;2023-03-01T14:41:34;9.50;81.10
49222;DHT22;35047;37.588;-122.048;2023-03-01T14:44:05;9.50;81.10
49222;DHT22;35047;37.588;-122.048;2023-03-01T14:46:40;9.50;81.40
49222;DHT22;35047;37.588;-122.048;2023-03-01T14:49:16;9.40;81.30
49222;DHT22;35047;37.588;-122.048;2023-03-01T14:54:48;9.50;81.40
49222;DHT22;35047;37.588;-122.048;2023-03-01T14:57:20;9.40;81.30
49222;DHT22;35047;37.588;-122.048;2023-03-01T14:59:53;9.30;81.50
49222;DHT22;35047;37.588;-122.048;2023-03-01T15:02:23;9.30;81.70
49222;DHT22;35047;37.588;-122.048;2023-03-01T15:04:54;9.30;81.90
49222;DHT22;35047;37.588;-122.048;2023-03-01T15:07:30;9.30;82.00
49222;DHT22;35047;37.588;-122.048;2023-03-01T15:09:58;9.30;82.20
49222;DHT22;35047;37.588;-122.048;2023-03-01T15:14:57;9.30;82.30
49222;DHT22;35047;37.588;-122.048;2023-03-01T15:17:32;9.30;82.40
49222;DHT22;35047;37.588;-122.048;2023-03-01T15:20:02;9.30;82.60
49222;DHT22;35047;37.588;-122.048;2023-03-01T15:22:30;9.30;82.50
49222;DHT22;35047;37.588;-122.048;2023-03-01T15:24:56;9.30;83.20
49222;DHT22;35047;37.588;-122.048;2023-03-01T15:27:24;9.40;83.20
49222;DHT22;35047;37.588;-122.048;2023-03-01T15:30:02;9.30;83.50
49222;DHT22;35047;37.588;-122.048;2023-03-01T15:32:31;9.40;83.90
49222;DHT22;35047;37.588;-122.048;2023-03-01T15:38:22;9.40;84.40
49222;DHT22;35047;37.588;-122.048;2023-03-01T15:40:50;9.50;84.70
49222;DHT22;35047;37.588;-122.048;2023-03-01T15:46:05;9.60;85.30
49222;DHT22;35047;37.588;-122.048;2023-03-01T15:48:31;9.60;85.60
49222;DHT22;35047;37.588;-122.048;2023-03-01T15:50:59;9.70;85.80
49222;DHT22;35047;37.588;-122.048;2023-03-01T15:53:27;9.80;86.20
49222;DHT22;35047;37.588;-122.048;2023-03-01T15:55:54;9.80;85.80
49222;DHT22;35047;37.588;-122.048;2023-03-01T15:58:23;9.90;85.40
49222;DHT22;35047;37.588;-122.048;2023-03-01T16:00:50;10.00;85.20
49222;DHT22;35047;37.588;-122.048;2023-03-01T16:03:22;10.00;84.80
49222;DHT22;35047;37.588;-122.048;2023-03-01T16:05:49;10.10;84.70
49222;DHT22;35047;37.588;-122.048;2023-03-01T16:08:17;10.20;83.80
49222;DHT22;35047;37.588;-122.048;2023-03-01T16:10:44;10.20;83.90
49222;DHT22;35047;37.588;-122.048;2023-03-01T16:13:12;10.30;83.30
49222;DHT22;35047;37.588;-122.048;2023-03-01T16:15:39;10.30;83.70
49222;DHT22;35047;37.588;-122.048;2023-03-01T16:18:06;10.40;84.00
49222;DHT22;35047;37.588;-122.048;2023-03-01T16:20:36;10.50;82.70
49222;DHT22;35047;37.588;-122.048;2023-03-01T16:23:04;10.50;81.40
49222;DHT22;35047;37.588;-122.048;2023-03-01T16:25:33;10.50;78.70
49222;DHT22;35047;37.588;-122.048;2023-03-01T16:27:59;10.50;81.00
49222;DHT22;35047;37.588;-122.048;2023-03-01T16:30:31;10.60;81.50
49222;DHT22;35047;37.588;-122.048;2023-03-01T16:32:57;10.60;81.90
49222;DHT22;35047;37.588;-122.048;2023-03-01T16:35:24;10.70;81.40
49222;DHT22;35047;37.588;-122.048;2023-03-01T16:37:51;10.80;81.60
49222;DHT22;35047;37.588;-122.048;2023-03-01T16:40:24;10.90;82.00
49222;DHT22;35047;37.588;-122.048;2023-03-01T16:42:53;10.90;79.80
49222;DHT22;35047;37.588;-122.048;2023-03-01T16:45:21;11.00;79.10
49222;DHT22;35047;37.588;-122.048;2023-03-01T16:47:47;11.10;79.00
49222;DHT22;35047;37.588;-122.048;2023-03-01T16:50:14;11.10;79.20
49222;DHT22;35047;37.588;-122.048;2023-03-01T16:52:40;11.20;80.30
49222;DHT22;35047;37.588;-122.048;2023-03-01T16:55:10;11.30;80.50
49222;DHT22;35047;37.588;-122.048;2023-03-01T16:57:37;11.50;80.10
49222;DHT22;35047;37.588;-122.048;2023-03-01T17:00:06;11.70;80.30
49222;DHT22;35047;37.588;-122.048;2023-03-01T17:02:34;11.80;79.80
49222;DHT22;35047;37.588;-122.048;2023-03-01T17:05:01;12.00;79.40
49222;DHT22;35047;37.588;-122.048;2023-03-01T17:07:29;12.30;80.70
49222;DHT22;35047;37.588;-122.048;2023-03-01T17:10:03;12.50;79.50
49222;DHT22;35047;37.588;-122.048;2023-03-01T17:12:30;12.80;78.60
49222;DHT22;35047;37.588;-122.048;2023-03-01T17:14:57;13.10;75.50
49222;DHT22;35047;37.588;-122.048;2023-03-01T17:17:24;13.40;76.70
49222;DHT22;35047;37.588;-122.048;2023-03-01T17:19:50;13.80;78.60
49222;DHT22;35047;37.588;-122.048;2023-03-01T17:22:17;14.00;72.50
49222;DHT22;35047;37.588;-122.048;2023-03-01T17:24:44;14.10;72.90
49222;DHT22;35047;37.588;-122.048;2023-03-01T17:27:12;14.30;74.20
49222;DHT22;35047;37.588;-122.048;2023-03-01T17:29:40;14.50;74.10